Date,TemperatureHighF,TemperatureAvgF,TemperatureLowF,DewpointHighF,DewpointAvgF,DewpointLowF,HumidityHigh,HumidityAvg,HumidityLow,PressureMaxIn,PressureMinIn,WindSpeedMaxMPH,WindSpeedAvgMPH,GustSpeedMaxMPH,PrecipitationSumIn
2013-1-1,48,46,43,47,38,26,99,78,45,30.01,29.84,7,0,13,0.19
2013-1-2,47,42,38,47,41,36,100,95,81,30.11,29.84,4,0,5,0.21
2013-1-3,42,38,30,38,35,29,97,91,72,30.17,30.07,0,0,0,0.00
2013-1-4,49,36,27,30,25,19,98,67,33,30.22,30.10,5,0,7,0.00
2013-1-5,51,38,27,29,24,20,79,58,32,30.30,30.17,0,0,6,0.00
2013-1-6,50,42,35,38,34,27,94,73,54,30.16,29.97,0,0,4,0.02
2013-1-7,52,40,30,34,30,28,92,71,43,30.36,30.09,5,0,8,0.00
2013-1-8,54,42,31,38,34,28,93,74,48,30.38,30.28,0,0,0,0.00
2013-1-9,68,51,37,50,43,36,99,78,52,30.35,30.26,4,0,7,0.00
2013-1-10,62,53,45,49,41,32,94,66,47,30.44,30.31,6,0,8,0.00
2013-1-11,51,46,42,50,42,31,100,88,58,30.35,30.06,4,0,5,0.19
2013-1-12,70,57,49,62,55,49,100,96,72,30.08,30.01,3,0,4,0.00
2013-1-13,74,62,54,62,58,54,100,86,58,30.05,29.96,6,0,9,0.01
2013-1-14,68,63,53,63,59,52,100,89,74,30.07,29.99,5,0,9,0.09
2013-1-15,52,44,42,51,44,42,100,99,96,30.16,29.98,9,0,9,0.02
2013-1-16,49,45,42,49,45,42,100,100,100,29.99,29.89,0,0,5,0.16
2013-1-17,50,45,32,50,45,32,100,99,96,30.04,29.82,7,0,12,0.86
2013-1-18,45,35,29,34,29,23,100,82,43,30.46,30.04,1,0,3,0.42
2013-1-19,55,39,26,31,26,23,93,63,31,30.42,30.06,0,0,5,0.00
2013-1-20,63,48,39,35,31,27,71,53,29,30.06,29.89,11,0,12,0.01
2013-1-21,59,45,32,31,26,16,82,52,26,30.00,29.77,6,0,13,0.00
2013-1-22,38,32,22,20,5,-4,51,33,19,30.21,29.86,7,0,13,0.00
2013-1-23,40,29,17,14,8,0,68,42,26,30.30,29.97,7,0,11,0.00
2013-1-24,36,30,21,23,12,2,66,49,25,30.44,29.86,19,0,19,0.00
2013-1-25,27,23,17,25,14,3,94,69,39,30.44,30.02,0,0,0,0.00
2013-1-26,35,29,26,32,28,25,97,94,86,30.32,30.00,0,0,0,0.13
2013-1-27,39,30,22,29,25,21,97,83,59,30.52,30.31,0,0,3,0.07
2013-1-28,50,41,28,46,35,24,91,79,56,30.43,30.13,3,0,9,0.04
2013-1-29,74,59,47,56,51,46,97,77,51,30.14,29.98,5,0,10,0.00
2013-1-30,71,66,60,63,61,56,96,83,71,29.97,29.27,23,2,29,0.02
2013-1-31,66,46,34,62,29,16,94,54,28,29.92,29.27,13,2,22,0.13